createdAt,value
2023-04-27T00:03:32.431Z,100.00
2023-04-27T00:08:29.066Z,100.00
2023-04-27T00:13:25.408Z,100.00
2023-04-27T00:18:21.699Z,100.00
2023-04-27T00:23:17.985Z,100.00
2023-04-27T00:28:14.432Z,100.00
2023-04-27T00:33:10.761Z,100.00
2023-04-27T00:38:07.218Z,100.00
2023-04-27T00:43:03.521Z,100.00
2023-04-27T00:47:59.946Z,100.00
2023-04-27T00:52:57.381Z,100.00
2023-04-27T00:57:53.678Z,100.00
2023-04-27T01:02:52.065Z,100.00
2023-04-27T01:07:48.516Z,100.00
2023-04-27T01:12:44.862Z,100.00
2023-04-27T01:17:41.683Z,100.00
2023-04-27T01:22:38.442Z,100.00
2023-04-27T01:27:34.818Z,100.00
2023-04-27T01:32:31.257Z,100.00
2023-04-27T01:37:27.646Z,100.00
2023-04-27T01:42:23.946Z,100.00
2023-04-27T01:47:20.738Z,100.00
2023-04-27T01:52:17.033Z,100.00
2023-04-27T01:57:14.341Z,100.00
2023-04-27T02:02:10.709Z,100.00
2023-04-27T02:07:07.162Z,100.00
2023-04-27T02:12:03.711Z,100.00
2023-04-27T02:17:00.362Z,100.00
2023-04-27T02:21:56.769Z,100.00
2023-04-27T02:26:53.085Z,100.00
2023-04-27T02:31:49.475Z,100.00
2023-04-27T02:36:45.889Z,100.00
2023-04-27T02:41:42.241Z,100.00
2023-04-27T02:46:38.650Z,100.00
2023-04-27T02:51:34.984Z,100.00
2023-04-27T02:56:31.380Z,100.00
2023-04-27T03:01:28.264Z,100.00
2023-04-27T03:06:24.648Z,100.00
2023-04-27T03:11:20.947Z,100.00
2023-04-27T03:16:17.462Z,100.00
2023-04-27T03:21:13.894Z,100.00
2023-04-27T03:26:11.903Z,100.00
2023-04-27T03:31:11.288Z,100.00
2023-04-27T03:36:10.271Z,100.00
2023-04-27T03:41:06.615Z,100.00
2023-04-27T03:46:03.020Z,100.00
2023-04-27T03:51:00.732Z,100.00
2023-04-27T03:55:57.097Z,100.00
2023-04-27T04:00:54.671Z,100.00
2023-04-27T04:05:51.278Z,100.00
2023-04-27T04:10:47.567Z,100.00
2023-04-27T04:15:43.929Z,100.00
2023-04-27T04:20:41.257Z,100.00
2023-04-27T04:25:40.211Z,100.00
2023-04-27T04:30:36.782Z,100.00
2023-04-27T04:35:33.322Z,100.00
2023-04-27T04:40:29.865Z,100.00
2023-04-27T04:45:26.996Z,100.00
2023-04-27T04:50:23.504Z,100.00
2023-04-27T04:55:20.543Z,100.00
2023-04-27T05:00:17.043Z,100.00
2023-04-27T05:05:13.467Z,100.00
2023-04-27T05:10:10.069Z,100.00
2023-04-27T05:15:07.138Z,100.00
2023-04-27T05:20:04.900Z,100.00
2023-04-27T05:25:01.356Z,100.00
2023-04-27T05:29:58.073Z,100.00
2023-04-27T05:34:54.388Z,100.00
2023-04-27T05:39:50.775Z,100.00
2023-04-27T05:44:47.103Z,100.00
2023-04-27T05:49:43.601Z,100.00
2023-04-27T05:54:39.958Z,100.00
2023-04-27T05:59:36.397Z,100.00
2023-04-27T06:04:33.417Z,100.00
2023-04-27T06:09:32.847Z,100.00
2023-04-27T06:14:29.155Z,100.00
2023-04-27T06:19:26.721Z,100.00
2023-04-27T06:24:23.284Z,100.00
2023-04-27T06:29:19.605Z,100.00
2023-04-27T06:34:15.951Z,100.00
2023-04-27T06:39:12.478Z,100.00
2023-04-27T06:44:09.094Z,100.00
2023-04-27T06:49:05.825Z,100.00
2023-04-27T06:54:02.159Z,100.00
2023-04-27T06:58:58.780Z,100.00
2023-04-27T07:03:55.446Z,100.00
2023-04-27T07:08:52.012Z,100.00
2023-04-27T07:13:48.399Z,100.00
2023-04-27T07:18:44.772Z,100.00
2023-04-27T07:23:41.788Z,100.00
2023-04-27T07:28:39.115Z,100.00
2023-04-27T07:33:35.505Z,96.68
2023-04-27T07:38:31.918Z,92.16
2023-04-27T07:43:28.593Z,81.98
2023-04-27T07:48:25.454Z,85.57
2023-04-27T07:53:21.883Z,79.42
2023-04-27T07:58:20.200Z,73.70
2023-04-27T08:03:17.278Z,78.73
2023-04-27T08:08:13.914Z,76.94
2023-04-27T08:13:10.500Z,79.80
2023-04-27T08:18:06.978Z,70.85
2023-04-27T08:23:03.368Z,69.48
2023-04-27T08:27:59.783Z,75.60
2023-04-27T08:32:56.280Z,72.05
2023-04-27T08:37:54.264Z,67.16
2023-04-27T08:42:56.148Z,64.72
2023-04-27T08:47:53.782Z,69.25
2023-04-27T08:52:51.051Z,67.87
2023-04-27T08:57:58.047Z,65.99
2023-04-27T09:02:54.628Z,65.47
2023-04-27T09:07:58.721Z,61.98
2023-04-27T09:13:00.241Z,62.60
2023-04-27T09:17:57.899Z,61.78
2023-04-27T09:22:55.974Z,60.96
2023-04-27T09:27:52.387Z,65.06
2023-04-27T09:32:57.325Z,62.03
2023-04-27T09:37:54.544Z,63.28
2023-04-27T09:42:51.111Z,58.46
2023-04-27T09:47:48.191Z,60.37
2023-04-27T09:52:46.565Z,62.18
2023-04-27T09:57:48.784Z,59.08
2023-04-27T10:03:03.620Z,60.95
2023-04-27T10:08:00.707Z,56.02
2023-04-27T10:13:00.869Z,57.21
2023-04-27T10:18:04.822Z,55.73
2023-04-27T10:23:01.542Z,56.78
2023-04-27T10:27:59.964Z,50.44
2023-04-27T10:32:57.304Z,53.78
2023-04-27T10:37:53.678Z,50.86
2023-04-27T10:42:49.999Z,48.73
2023-04-27T10:47:46.967Z,51.09
2023-04-27T10:52:44.232Z,50.48
2023-04-27T10:58:01.922Z,48.39
2023-04-27T11:03:18.490Z,49.00
2023-04-27T11:08:19.349Z,49.11
2023-04-27T11:13:28.005Z,53.12
2023-04-27T11:18:27.227Z,55.27
2023-04-27T11:23:30.533Z,51.71
2023-04-27T11:28:26.934Z,51.89
2023-04-27T11:33:23.306Z,52.88
2023-04-27T11:38:20.129Z,50.16
2023-04-27T11:43:16.715Z,50.26
2023-04-27T11:48:16.684Z,50.35
2023-04-27T11:53:13.066Z,50.44
2023-04-27T11:58:16.290Z,47.74
2023-04-27T12:03:13.011Z,48.31
2023-04-27T12:08:09.740Z,49.49
2023-04-27T12:13:06.136Z,49.78
2023-04-27T12:18:02.745Z,49.00
2023-04-27T12:22:59.108Z,49.43
2023-04-27T12:27:55.898Z,48.31
2023-04-27T12:32:52.319Z,49.47
2023-04-27T12:37:50.017Z,48.87
2023-04-27T12:42:46.362Z,44.68
2023-04-27T12:48:01.250Z,47.17
2023-04-27T12:52:59.805Z,42.41
2023-04-27T12:57:58.139Z,45.60
2023-04-27T13:02:54.636Z,43.80
2023-04-27T13:07:51.213Z,45.98
2023-04-27T13:12:47.532Z,42.69
2023-04-27T13:17:44.186Z,38.96
2023-04-27T13:22:40.906Z,43.83
2023-04-27T13:27:37.383Z,43.53
2023-04-27T13:32:33.896Z,44.11
2023-04-27T13:37:30.364Z,46.89
2023-04-27T13:42:29.365Z,45.58
2023-04-27T13:47:25.917Z,45.08
2023-04-27T13:52:22.286Z,48.75
2023-04-27T13:57:18.695Z,47.42
2023-04-27T14:02:15.138Z,42.04
2023-04-27T14:07:11.490Z,42.91
2023-04-27T14:12:09.217Z,43.49
2023-04-27T14:17:05.782Z,45.61
2023-04-27T14:22:02.270Z,44.39
2023-04-27T14:26:58.762Z,42.56
2023-04-27T14:31:56.005Z,42.36
2023-04-27T14:36:52.390Z,41.11
2023-04-27T14:41:48.780Z,43.49
2023-04-27T14:46:45.256Z,42.77
2023-04-27T14:51:43.502Z,44.52
2023-04-27T14:56:40.129Z,42.79
2023-04-27T15:01:37.173Z,43.37
2023-04-27T15:06:33.714Z,40.91
2023-04-27T15:11:30.117Z,40.39
2023-04-27T15:16:26.514Z,41.35
2023-04-27T15:21:23.027Z,39.07
2023-04-27T15:26:19.378Z,39.26
2023-04-27T15:31:15.925Z,41.53
2023-04-27T15:36:12.700Z,40.27
2023-04-27T15:41:09.283Z,41.55
2023-04-27T15:46:06.392Z,41.38
2023-04-27T15:51:03.881Z,41.04
2023-04-27T15:56:00.353Z,42.55
2023-04-27T16:00:56.815Z,41.69
2023-04-27T16:05:53.201Z,43.76
2023-04-27T16:10:50.055Z,42.92
2023-04-27T16:15:46.573Z,44.42
2023-04-27T16:20:42.859Z,44.51
2023-04-27T16:25:39.146Z,43.31
2023-04-27T16:30:37.557Z,42.93
2023-04-27T16:35:34.785Z,44.56
2023-04-27T16:40:31.904Z,45.26
2023-04-27T16:45:28.587Z,47.68
2023-04-27T16:50:25.473Z,46.41
2023-04-27T16:55:21.981Z,45.09
2023-04-27T17:00:18.508Z,45.19
2023-04-27T17:05:14.913Z,44.15
2023-04-27T17:10:11.571Z,45.33
2023-04-27T17:15:09.080Z,42.46
2023-04-27T17:20:07.122Z,42.92
2023-04-27T17:25:04.042Z,45.30
2023-04-27T17:30:00.567Z,45.07
2023-04-27T17:34:57.511Z,45.63
2023-04-27T17:39:54.442Z,45.26
2023-04-27T17:44:50.735Z,45.39
2023-04-27T17:49:47.032Z,45.00
2023-04-27T17:54:43.379Z,48.84
2023-04-27T17:59:39.713Z,48.27
2023-04-27T18:04:36.540Z,48.24
2023-04-27T18:09:33.177Z,49.72
2023-04-27T18:14:29.536Z,51.27
2023-04-27T18:19:25.837Z,52.79
2023-04-27T18:24:22.150Z,54.92
2023-04-27T18:29:18.493Z,55.37
2023-04-27T18:34:14.828Z,56.08
2023-04-27T18:39:11.526Z,58.92
2023-04-27T18:44:07.978Z,59.07
2023-04-27T18:49:04.269Z,59.44
2023-04-27T18:54:00.613Z,60.50
2023-04-27T18:58:57.412Z,59.59
2023-04-27T19:03:54.363Z,59.55
2023-04-27T19:08:51.176Z,60.79
2023-04-27T19:13:48.520Z,61.95
2023-04-27T19:18:44.882Z,61.22
2023-04-27T19:23:41.392Z,60.56
2023-04-27T19:28:37.854Z,60.19
2023-04-27T19:33:34.258Z,61.23
2023-04-27T19:38:30.872Z,61.93
2023-04-27T19:43:27.233Z,62.48
2023-04-27T19:48:23.614Z,64.08
2023-04-27T19:53:20.729Z,65.54
2023-04-27T19:58:17.243Z,67.91
2023-04-27T20:03:14.260Z,68.49
2023-04-27T20:08:10.955Z,70.92
2023-04-27T20:13:07.302Z,70.98
2023-04-27T20:18:03.690Z,73.43
2023-04-27T20:23:00.061Z,76.67
2023-04-27T20:27:56.382Z,79.73
2023-04-27T20:32:52.703Z,83.74
2023-04-27T20:37:49.148Z,85.13
2023-04-27T20:42:46.031Z,89.30
2023-04-27T20:47:42.529Z,88.46
2023-04-27T20:52:38.921Z,88.95
2023-04-27T20:57:35.555Z,100.00
2023-04-27T21:02:31.965Z,100.00
2023-04-27T21:07:28.386Z,100.00
2023-04-27T21:12:24.690Z,100.00
2023-04-27T21:17:21.027Z,97.58
2023-04-27T21:22:17.451Z,97.29
2023-04-27T21:27:13.944Z,89.90
2023-04-27T21:32:10.417Z,88.66
2023-04-27T21:37:06.718Z,85.35
2023-04-27T21:42:03.048Z,91.81
2023-04-27T21:47:00.183Z,90.21
2023-04-27T21:51:56.455Z,97.08
2023-04-27T21:56:52.976Z,99.53
2023-04-27T22:02:00.611Z,96.16
2023-04-27T22:06:56.927Z,90.21
2023-04-27T22:11:53.377Z,86.88
2023-04-27T22:16:50.266Z,97.06
2023-04-27T22:21:47.062Z,99.43
2023-04-27T22:26:43.404Z,97.57
2023-04-27T22:31:40.393Z,100.00
2023-04-27T22:36:36.912Z,100.00
2023-04-27T22:41:33.596Z,100.00
2023-04-27T22:46:30.073Z,100.00
2023-04-27T22:51:27.465Z,100.00
2023-04-27T22:56:24.049Z,100.00
2023-04-27T23:01:20.488Z,100.00
2023-04-27T23:06:16.861Z,100.00
2023-04-27T23:11:13.832Z,100.00
2023-04-27T23:16:10.506Z,100.00
2023-04-27T23:21:06.989Z,100.00
2023-04-27T23:26:03.389Z,100.00
2023-04-27T23:30:59.825Z,100.00
2023-04-27T23:35:56.303Z,100.00
2023-04-27T23:40:52.743Z,100.00
2023-04-27T23:45:51.315Z,100.00
2023-04-27T23:50:47.663Z,100.00
2023-04-27T23:55:44.043Z,100.00
